sensor_id;sensor_type;location;lat;lon;timestamp;P1;durP1;ratioP1;P2;durP2;ratioP2
20318;SDS011;10317;47.254;11.314;2022-10-16T00:01:29;8.10;;;4.10;;
20318;SDS011;10317;47.254;11.314;2022-10-16T00:03:56;7.05;;;4.00;;
20318;SDS011;10317;47.254;11.314;2022-10-16T00:06:23;5.18;;;4.70;;
20318;SDS011;10317;47.254;11.314;2022-10-16T00:08:49;5.18;;;4.13;;
20318;SDS011;10317;47.254;11.314;2022-10-16T00:11:17;5.28;;;4.00;;
20318;SDS011;10317;47.254;11.314;2022-10-16T00:13:45;6.43;;;4.38;;
20318;SDS011;10317;47.254;11.314;2022-10-16T00:16:11;4.32;;;4.03;;
20318;SDS011;10317;47.254;11.314;2022-10-16T00:18:38;5.97;;;4.40;;
20318;SDS011;10317;47.254;11.314;2022-10-16T00:21:06;5.03;;;4.40;;
20318;SDS011;10317;47.254;11.314;2022-10-16T00:23:34;4.97;;;4.25;;
20318;SDS011;10317;47.254;11.314;2022-10-16T00:26:02;5.25;;;4.03;;
20318;SDS011;10317;47.254;11.314;2022-10-16T00:28:29;4.28;;;3.85;;
20318;SDS011;10317;47.254;11.314;2022-10-16T00:30:55;4.63;;;4.22;;
20318;SDS011;10317;47.254;11.314;2022-10-16T00:33:21;5.40;;;4.60;;
20318;SDS011;10317;47.254;11.314;2022-10-16T00:35:48;4.40;;;3.80;;
20318;SDS011;10317;47.254;11.314;2022-10-16T00:38:13;7.80;;;4.15;;
20318;SDS011;10317;47.254;11.314;2022-10-16T00:40:39;4.82;;;4.38;;
20318;SDS011;10317;47.254;11.314;2022-10-16T00:43:12;4.55;;;4.07;;
20318;SDS011;10317;47.254;11.314;2022-10-16T00:45:57;6.00;;;4.20;;
20318;SDS011;10317;47.254;11.314;2022-10-16T00:48:23;4.18;;;3.78;;
20318;SDS011;10317;47.254;11.314;2022-10-16T00:50:48;6.15;;;4.10;;
20318;SDS011;10317;47.254;11.314;2022-10-16T00:53:14;3.80;;;3.50;;
20318;SDS011;10317;47.254;11.314;2022-10-16T00:55:41;4.30;;;3.95;;
20318;SDS011;10317;47.254;11.314;2022-10-16T00:58:07;3.85;;;3.55;;
20318;SDS011;10317;47.254;11.314;2022-10-16T01:00:33;6.88;;;4.32;;
20318;SDS011;10317;47.254;11.314;2022-10-16T01:02:59;4.78;;;4.32;;
20318;SDS011;10317;47.254;11.314;2022-10-16T01:05:30;4.53;;;4.13;;
20318;SDS011;10317;47.254;11.314;2022-10-16T01:08:09;13.55;;;4.28;;
20318;SDS011;10317;47.254;11.314;2022-10-16T01:16:05;4.82;;;4.35;;
20318;SDS011;10317;47.254;11.314;2022-10-16T01:18:43;6.85;;;4.20;;
20318;SDS011;10317;47.254;11.314;2022-10-16T01:21:21;5.72;;;4.30;;
20318;SDS011;10317;47.254;11.314;2022-10-16T01:24:06;3.85;;;3.55;;
20318;SDS011;10317;47.254;11.314;2022-10-16T01:32:00;4.53;;;4.13;;
20318;SDS011;10317;47.254;11.314;2022-10-16T01:34:33;3.90;;;3.53;;
20318;SDS011;10317;47.254;11.314;2022-10-16T01:37:08;4.63;;;4.18;;
20318;SDS011;10317;47.254;11.314;2022-10-16T01:39:38;6.88;;;4.10;;
20318;SDS011;10317;47.254;11.314;2022-10-16T01:42:28;5.75;;;4.00;;
20318;SDS011;10317;47.254;11.314;2022-10-16T01:44:56;6.25;;;4.15;;
20318;SDS011;10317;47.254;11.314;2022-10-16T01:47:24;4.78;;;4.03;;
20318;SDS011;10317;47.254;11.314;2022-10-16T01:49:51;6.88;;;4.05;;
20318;SDS011;10317;47.254;11.314;2022-10-16T01:52:19;5.53;;;3.70;;
20318;SDS011;10317;47.254;11.314;2022-10-16T01:54:49;6.00;;;4.07;;
20318;SDS011;10317;47.254;11.314;2022-10-16T01:57:17;6.10;;;3.33;;
20318;SDS011;10317;47.254;11.314;2022-10-16T01:59:46;7.05;;;4.53;;
20318;SDS011;10317;47.254;11.314;2022-10-16T02:02:15;7.03;;;4.55;;
20318;SDS011;10317;47.254;11.314;2022-10-16T02:04:45;4.78;;;3.90;;
20318;SDS011;10317;47.254;11.314;2022-10-16T02:07:14;5.65;;;4.50;;
20318;SDS011;10317;47.254;11.314;2022-10-16T02:09:41;8.63;;;4.13;;
20318;SDS011;10317;47.254;11.314;2022-10-16T02:14:41;5.82;;;3.97;;
20318;SDS011;10317;47.254;11.314;2022-10-16T02:17:14;6.40;;;4.00;;
20318;SDS011;10317;47.254;11.314;2022-10-16T02:19:42;4.53;;;3.55;;
20318;SDS011;10317;47.254;11.314;2022-10-16T02:22:13;5.68;;;4.00;;
20318;SDS011;10317;47.254;11.314;2022-10-16T02:30:15;4.93;;;4.22;;
20318;SDS011;10317;47.254;11.314;2022-10-16T02:32:49;6.20;;;4.00;;
20318;SDS011;10317;47.254;11.314;2022-10-16T02:35:17;5.75;;;4.38;;
20318;SDS011;10317;47.254;11.314;2022-10-16T02:37:45;6.00;;;4.13;;
20318;SDS011;10317;47.254;11.314;2022-10-16T02:40:13;7.95;;;4.47;;
20318;SDS011;10317;47.254;11.314;2022-10-16T02:42:39;8.20;;;4.65;;
20318;SDS011;10317;47.254;11.314;2022-10-16T02:45:06;5.10;;;4.63;;
20318;SDS011;10317;47.254;11.314;2022-10-16T02:47:33;5.32;;;4.22;;
20318;SDS011;10317;47.254;11.314;2022-10-16T02:49:58;5.10;;;4.13;;
20318;SDS011;10317;47.254;11.314;2022-10-16T02:52:24;6.25;;;3.97;;
20318;SDS011;10317;47.254;11.314;2022-10-16T02:54:50;5.10;;;3.88;;
20318;SDS011;10317;47.254;11.314;2022-10-16T02:57:16;5.03;;;4.53;;
20318;SDS011;10317;47.254;11.314;2022-10-16T02:59:43;6.53;;;5.70;;
20318;SDS011;10317;47.254;11.314;2022-10-16T03:02:09;5.05;;;4.45;;
20318;SDS011;10317;47.254;11.314;2022-10-16T03:04:35;6.00;;;5.38;;
20318;SDS011;10317;47.254;11.314;2022-10-16T03:07:00;5.75;;;4.65;;
20318;SDS011;10317;47.254;11.314;2022-10-16T03:09:26;5.38;;;4.88;;
20318;SDS011;10317;47.254;11.314;2022-10-16T03:11:52;4.75;;;4.32;;
20318;SDS011;10317;47.254;11.314;2022-10-16T03:14:17;4.28;;;3.88;;
20318;SDS011;10317;47.254;11.314;2022-10-16T03:16:43;6.25;;;4.68;;
20318;SDS011;10317;47.254;11.314;2022-10-16T03:19:09;4.28;;;3.88;;
20318;SDS011;10317;47.254;11.314;2022-10-16T03:21:34;8.02;;;5.30;;
20318;SDS011;10317;47.254;11.314;2022-10-16T03:24:00;6.13;;;4.15;;
20318;SDS011;10317;47.254;11.314;2022-10-16T03:26:26;5.53;;;4.93;;
20318;SDS011;10317;47.254;11.314;2022-10-16T03:28:51;4.47;;;4.15;;
20318;SDS011;10317;47.254;11.314;2022-10-16T03:31:17;5.15;;;4.75;;
20318;SDS011;10317;47.254;11.314;2022-10-16T03:33:43;7.97;;;4.50;;
20318;SDS011;10317;47.254;11.314;2022-10-16T03:36:08;9.02;;;5.35;;
20318;SDS011;10317;47.254;11.314;2022-10-16T03:38:34;7.93;;;5.68;;
20318;SDS011;10317;47.254;11.314;2022-10-16T03:41:00;5.18;;;4.72;;
20318;SDS011;10317;47.254;11.314;2022-10-16T03:43:25;7.47;;;4.95;;
20318;SDS011;10317;47.254;11.314;2022-10-16T03:45:51;5.13;;;4.65;;
20318;SDS011;10317;47.254;11.314;2022-10-16T03:48:20;5.45;;;4.90;;
20318;SDS011;10317;47.254;11.314;2022-10-16T03:50:45;4.60;;;4.20;;
20318;SDS011;10317;47.254;11.314;2022-10-16T03:53:13;9.35;;;5.40;;
20318;SDS011;10317;47.254;11.314;2022-10-16T03:55:40;6.13;;;4.20;;
20318;SDS011;10317;47.254;11.314;2022-10-16T03:58:07;5.80;;;4.55;;
20318;SDS011;10317;47.254;11.314;2022-10-16T04:00:33;5.50;;;4.38;;
20318;SDS011;10317;47.254;11.314;2022-10-16T04:02:59;5.35;;;4.10;;
20318;SDS011;10317;47.254;11.314;2022-10-16T04:05:25;5.18;;;4.65;;
20318;SDS011;10317;47.254;11.314;2022-10-16T04:07:51;6.95;;;4.82;;
20318;SDS011;10317;47.254;11.314;2022-10-16T04:10:17;4.18;;;3.78;;
20318;SDS011;10317;47.254;11.314;2022-10-16T04:12:44;6.45;;;4.50;;
20318;SDS011;10317;47.254;11.314;2022-10-16T04:15:09;6.63;;;4.78;;
20318;SDS011;10317;47.254;11.314;2022-10-16T04:17:35;4.90;;;4.25;;
20318;SDS011;10317;47.254;11.314;2022-10-16T04:20:01;6.47;;;4.40;;
20318;SDS011;10317;47.254;11.314;2022-10-16T04:22:27;7.07;;;4.80;;
20318;SDS011;10317;47.254;11.314;2022-10-16T04:24:53;5.30;;;4.38;;
20318;SDS011;10317;47.254;11.314;2022-10-16T04:27:19;5.82;;;4.38;;
20318;SDS011;10317;47.254;11.314;2022-10-16T04:29:44;7.97;;;4.78;;
20318;SDS011;10317;47.254;11.314;2022-10-16T04:32:10;8.43;;;4.88;;
20318;SDS011;10317;47.254;11.314;2022-10-16T04:34:36;4.30;;;3.90;;
20318;SDS011;10317;47.254;11.314;2022-10-16T04:37:04;5.22;;;4.47;;
20318;SDS011;10317;47.254;11.314;2022-10-16T04:39:29;8.90;;;4.40;;
20318;SDS011;10317;47.254;11.314;2022-10-16T04:41:55;5.72;;;4.75;;
20318;SDS011;10317;47.254;11.314;2022-10-16T04:44:21;7.72;;;5.13;;
20318;SDS011;10317;47.254;11.314;2022-10-16T04:46:47;4.78;;;4.30;;
20318;SDS011;10317;47.254;11.314;2022-10-16T04:49:14;6.57;;;5.32;;
20318;SDS011;10317;47.254;11.314;2022-10-16T04:51:40;8.13;;;4.38;;
20318;SDS011;10317;47.254;11.314;2022-10-16T04:54:06;4.70;;;4.30;;
20318;SDS011;10317;47.254;11.314;2022-10-16T04:56:31;5.88;;;5.35;;
20318;SDS011;10317;47.254;11.314;2022-10-16T04:58:57;5.85;;;5.03;;
20318;SDS011;10317;47.254;11.314;2022-10-16T05:01:23;7.78;;;4.72;;
20318;SDS011;10317;47.254;11.314;2022-10-16T05:03:48;4.65;;;4.22;;
20318;SDS011;10317;47.254;11.314;2022-10-16T05:06:14;6.72;;;4.00;;
20318;SDS011;10317;47.254;11.314;2022-10-16T05:08:40;5.03;;;4.53;;
20318;SDS011;10317;47.254;11.314;2022-10-16T05:11:05;9.15;;;4.40;;
20318;SDS011;10317;47.254;11.314;2022-10-16T05:13:31;5.15;;;4.65;;
20318;SDS011;10317;47.254;11.314;2022-10-16T05:15:57;4.85;;;4.38;;
20318;SDS011;10317;47.254;11.314;2022-10-16T05:18:22;6.78;;;5.32;;
20318;SDS011;10317;47.254;11.314;2022-10-16T05:20:48;5.10;;;4.50;;
20318;SDS011;10317;47.254;11.314;2022-10-16T05:23:14;6.63;;;4.45;;
20318;SDS011;10317;47.254;11.314;2022-10-16T05:25:39;5.00;;;4.55;;
20318;SDS011;10317;47.254;11.314;2022-10-16T05:28:05;6.57;;;3.95;;
20318;SDS011;10317;47.254;11.314;2022-10-16T05:30:31;11.48;;;5.80;;
20318;SDS011;10317;47.254;11.314;2022-10-16T05:32:56;8.68;;;5.80;;
20318;SDS011;10317;47.254;11.314;2022-10-16T05:35:22;6.53;;;4.85;;
20318;SDS011;10317;47.254;11.314;2022-10-16T05:37:48;4.93;;;4.45;;
20318;SDS011;10317;47.254;11.314;2022-10-16T05:40:13;5.72;;;4.60;;
20318;SDS011;10317;47.254;11.314;2022-10-16T05:42:40;4.90;;;4.32;;
20318;SDS011;10317;47.254;11.314;2022-10-16T05:45:06;5.72;;;5.22;;
20318;SDS011;10317;47.254;11.314;2022-10-16T05:47:35;6.72;;;5.20;;
20318;SDS011;10317;47.254;11.314;2022-10-16T05:50:00;5.63;;;5.10;;
20318;SDS011;10317;47.254;11.314;2022-10-16T05:52:26;8.38;;;5.40;;
20318;SDS011;10317;47.254;11.314;2022-10-16T05:54:52;4.82;;;4.43;;
20318;SDS011;10317;47.254;11.314;2022-10-16T05:57:18;6.43;;;5.20;;
20318;SDS011;10317;47.254;11.314;2022-10-16T05:59:43;6.18;;;5.63;;
20318;SDS011;10317;47.254;11.314;2022-10-16T06:02:12;6.15;;;5.10;;
20318;SDS011;10317;47.254;11.314;2022-10-16T06:04:39;8.43;;;5.22;;
20318;SDS011;10317;47.254;11.314;2022-10-16T06:07:04;9.23;;;6.03;;
20318;SDS011;10317;47.254;11.314;2022-10-16T06:09:30;5.93;;;4.63;;
20318;SDS011;10317;47.254;11.314;2022-10-16T06:11:56;5.25;;;4.75;;
20318;SDS011;10317;47.254;11.314;2022-10-16T06:14:22;6.55;;;5.60;;
20318;SDS011;10317;47.254;11.314;2022-10-16T06:16:47;5.45;;;4.72;;
20318;SDS011;10317;47.254;11.314;2022-10-16T06:19:13;5.40;;;4.78;;
20318;SDS011;10317;47.254;11.314;2022-10-16T06:21:40;7.03;;;5.25;;
20318;SDS011;10317;47.254;11.314;2022-10-16T06:24:06;8.68;;;6.10;;
20318;SDS011;10317;47.254;11.314;2022-10-16T06:26:32;9.32;;;6.15;;
20318;SDS011;10317;47.254;11.314;2022-10-16T06:28:58;8.75;;;5.47;;
20318;SDS011;10317;47.254;11.314;2022-10-16T06:31:25;5.55;;;5.05;;
20318;SDS011;10317;47.254;11.314;2022-10-16T06:33:54;6.30;;;5.68;;
20318;SDS011;10317;47.254;11.314;2022-10-16T06:36:21;6.47;;;5.88;;
20318;SDS011;10317;47.254;11.314;2022-10-16T06:38:47;6.10;;;5.50;;
20318;SDS011;10317;47.254;11.314;2022-10-16T06:41:14;5.53;;;4.75;;
20318;SDS011;10317;47.254;11.314;2022-10-16T06:43:41;10.60;;;5.70;;
20318;SDS011;10317;47.254;11.314;2022-10-16T06:46:07;6.05;;;5.45;;
20318;SDS011;10317;47.254;11.314;2022-10-16T06:48:35;5.35;;;4.85;;
20318;SDS011;10317;47.254;11.314;2022-10-16T06:53:38;8.68;;;5.10;;
20318;SDS011;10317;47.254;11.314;2022-10-16T06:56:13;5.28;;;4.75;;
20318;SDS011;10317;47.254;11.314;2022-10-16T06:58:41;6.40;;;5.55;;
20318;SDS011;10317;47.254;11.314;2022-10-16T07:01:07;6.63;;;5.65;;
20318;SDS011;10317;47.254;11.314;2022-10-16T07:03:35;8.25;;;4.60;;
20318;SDS011;10317;47.254;11.314;2022-10-16T07:06:03;9.10;;;5.40;;
20318;SDS011;10317;47.254;11.314;2022-10-16T07:08:33;7.07;;;5.68;;
20318;SDS011;10317;47.254;11.314;2022-10-16T07:11:11;9.98;;;5.20;;
20318;SDS011;10317;47.254;11.314;2022-10-16T07:13:39;5.63;;;4.63;;
20318;SDS011;10317;47.254;11.314;2022-10-16T07:16:10;5.20;;;4.80;;
20318;SDS011;10317;47.254;11.314;2022-10-16T07:18:37;8.15;;;4.47;;
20318;SDS011;10317;47.254;11.314;2022-10-16T07:21:05;5.97;;;5.25;;
20318;SDS011;10317;47.254;11.314;2022-10-16T07:23:33;5.30;;;4.80;;
20318;SDS011;10317;47.254;11.314;2022-10-16T07:25:59;5.05;;;4.55;;
20318;SDS011;10317;47.254;11.314;2022-10-16T07:28:24;7.78;;;4.57;;
20318;SDS011;10317;47.254;11.314;2022-10-16T07:30:50;4.32;;;3.92;;
20318;SDS011;10317;47.254;11.314;2022-10-16T07:33:16;5.50;;;5.00;;
20318;SDS011;10317;47.254;11.314;2022-10-16T07:35:51;5.50;;;4.90;;
20318;SDS011;10317;47.254;11.314;2022-10-16T07:38:18;6.20;;;5.05;;
20318;SDS011;10317;47.254;11.314;2022-10-16T07:40:44;6.20;;;4.80;;
20318;SDS011;10317;47.254;11.314;2022-10-16T07:43:09;5.95;;;4.85;;
20318;SDS011;10317;47.254;11.314;2022-10-16T07:45:35;5.63;;;4.43;;
20318;SDS011;10317;47.254;11.314;2022-10-16T07:48:05;5.65;;;4.40;;
20318;SDS011;10317;47.254;11.314;2022-10-16T07:50:30;14.68;;;6.13;;
20318;SDS011;10317;47.254;11.314;2022-10-16T07:52:56;7.32;;;5.07;;
20318;SDS011;10317;47.254;11.314;2022-10-16T07:55:22;5.88;;;5.38;;
20318;SDS011;10317;47.254;11.314;2022-10-16T07:57:47;5.22;;;4.72;;
20318;SDS011;10317;47.254;11.314;2022-10-16T08:00:13;6.88;;;4.97;;
20318;SDS011;10317;47.254;11.314;2022-10-16T08:02:39;5.45;;;4.97;;
20318;SDS011;10317;47.254;11.314;2022-10-16T08:05:05;6.43;;;4.90;;
20318;SDS011;10317;47.254;11.314;2022-10-16T08:07:32;12.68;;;5.80;;
20318;SDS011;10317;47.254;11.314;2022-10-16T08:09:58;8.73;;;5.40;;
20318;SDS011;10317;47.254;11.314;2022-10-16T08:12:25;5.43;;;4.93;;
20318;SDS011;10317;47.254;11.314;2022-10-16T08:14:51;5.53;;;4.70;;
20318;SDS011;10317;47.254;11.314;2022-10-16T08:17:17;4.68;;;4.25;;
20318;SDS011;10317;47.254;11.314;2022-10-16T08:19:46;4.75;;;4.18;;
20318;SDS011;10317;47.254;11.314;2022-10-16T08:22:15;5.30;;;4.32;;
20318;SDS011;10317;47.254;11.314;2022-10-16T08:24:40;7.00;;;4.60;;
20318;SDS011;10317;47.254;11.314;2022-10-16T08:27:06;5.40;;;4.15;;
20318;SDS011;10317;47.254;11.314;2022-10-16T08:29:33;5.10;;;4.60;;
20318;SDS011;10317;47.254;11.314;2022-10-16T08:31:59;6.15;;;4.15;;
20318;SDS011;10317;47.254;11.314;2022-10-16T08:34:25;6.30;;;4.15;;
20318;SDS011;10317;47.254;11.314;2022-10-16T08:36:52;6.00;;;4.45;;
20318;SDS011;10317;47.254;11.314;2022-10-16T08:39:19;4.28;;;3.90;;
20318;SDS011;10317;47.254;11.314;2022-10-16T08:50:22;5.03;;;3.90;;
20318;SDS011;10317;47.254;11.314;2022-10-16T08:52:50;5.45;;;4.35;;
20318;SDS011;10317;47.254;11.314;2022-10-16T08:55:38;6.18;;;4.45;;
20318;SDS011;10317;47.254;11.314;2022-10-16T08:58:16;6.75;;;4.15;;
20318;SDS011;10317;47.254;11.314;2022-10-16T09:00:49;4.43;;;4.03;;
20318;SDS011;10317;47.254;11.314;2022-10-16T09:05:57;5.90;;;3.47;;
20318;SDS011;10317;47.254;11.314;2022-10-16T09:13:53;3.80;;;3.40;;
20318;SDS011;10317;47.254;11.314;2022-10-16T09:16:30;3.80;;;3.45;;
20318;SDS011;10317;47.254;11.314;2022-10-16T09:21:45;3.45;;;3.15;;
20318;SDS011;10317;47.254;11.314;2022-10-16T09:24:16;4.63;;;2.63;;
20318;SDS011;10317;47.254;11.314;2022-10-16T09:26:44;4.88;;;3.45;;
20318;SDS011;10317;47.254;11.314;2022-10-16T09:29:14;5.43;;;4.13;;
20318;SDS011;10317;47.254;11.314;2022-10-16T09:31:41;3.80;;;3.50;;
20318;SDS011;10317;47.254;11.314;2022-10-16T09:34:11;5.78;;;3.60;;
20318;SDS011;10317;47.254;11.314;2022-10-16T09:36:52;5.95;;;3.50;;
20318;SDS011;10317;47.254;11.314;2022-10-16T09:39:18;3.83;;;3.10;;
20318;SDS011;10317;47.254;11.314;2022-10-16T09:41:44;4.22;;;3.42;;
20318;SDS011;10317;47.254;11.314;2022-10-16T09:44:26;3.20;;;3.00;;
20318;SDS011;10317;47.254;11.314;2022-10-16T09:47:01;3.17;;;2.97;;
20318;SDS011;10317;47.254;11.314;2022-10-16T09:49:27;3.38;;;3.08;;
20318;SDS011;10317;47.254;11.314;2022-10-16T09:52:13;3.30;;;3.08;;
20318;SDS011;10317;47.254;11.314;2022-10-16T09:57:49;4.03;;;3.22;;
20318;SDS011;10317;47.254;11.314;2022-10-16T10:00:18;4.30;;;4.00;;
20318;SDS011;10317;47.254;11.314;2022-10-16T10:02:44;3.67;;;3.38;;
20318;SDS011;10317;47.254;11.314;2022-10-16T10:05:18;4.32;;;4.00;;
20318;SDS011;10317;47.254;11.314;2022-10-16T10:07:45;4.38;;;3.65;;
20318;SDS011;10317;47.254;11.314;2022-10-16T10:10:22;3.70;;;3.15;;
20318;SDS011;10317;47.254;11.314;2022-10-16T10:12:52;3.30;;;3.00;;
20318;SDS011;10317;47.254;11.314;2022-10-16T10:15:19;4.88;;;4.38;;
20318;SDS011;10317;47.254;11.314;2022-10-16T10:17:51;3.35;;;3.10;;
20318;SDS011;10317;47.254;11.314;2022-10-16T10:22:51;3.40;;;3.10;;
20318;SDS011;10317;47.254;11.314;2022-10-16T10:28:20;3.38;;;3.17;;
20318;SDS011;10317;47.254;11.314;2022-10-16T10:47:55;4.43;;;3.22;;
20318;SDS011;10317;47.254;11.314;2022-10-16T10:53:29;3.60;;;3.30;;
20318;SDS011;10317;47.254;11.314;2022-10-16T11:06:55;4.10;;;3.10;;
20318;SDS011;10317;47.254;11.314;2022-10-16T11:09:28;7.93;;;3.50;;
20318;SDS011;10317;47.254;11.314;2022-10-16T11:12:16;5.45;;;2.97;;
20318;SDS011;10317;47.254;11.314;2022-10-16T11:14:58;3.30;;;3.03;;
20318;SDS011;10317;47.254;11.314;2022-10-16T11:17:28;4.78;;;3.42;;
20318;SDS011;10317;47.254;11.314;2022-10-16T11:20:01;3.80;;;3.42;;
20318;SDS011;10317;47.254;11.314;2022-10-16T11:22:37;3.55;;;3.25;;
20318;SDS011;10317;47.254;11.314;2022-10-16T11:46:38;4.38;;;2.80;;
20318;SDS011;10317;47.254;11.314;2022-10-16T11:49:15;5.28;;;3.08;;
20318;SDS011;10317;47.254;11.314;2022-10-16T11:51:48;3.35;;;3.15;;
20318;SDS011;10317;47.254;11.314;2022-10-16T11:57:53;3.92;;;3.15;;
20318;SDS011;10317;47.254;11.314;2022-10-16T12:00:28;5.70;;;3.05;;
20318;SDS011;10317;47.254;11.314;2022-10-16T12:08:20;3.50;;;3.17;;
20318;SDS011;10317;47.254;11.314;2022-10-16T12:10:46;3.95;;;3.13;;
20318;SDS011;10317;47.254;11.314;2022-10-16T12:13:29;3.10;;;2.92;;
20318;SDS011;10317;47.254;11.314;2022-10-16T12:18:41;3.42;;;3.13;;
20318;SDS011;10317;47.254;11.314;2022-10-16T12:21:09;6.07;;;3.67;;
20318;SDS011;10317;47.254;11.314;2022-10-16T12:23:46;3.65;;;3.42;;
20318;SDS011;10317;47.254;11.314;2022-10-16T12:26:23;3.78;;;3.40;;
20318;SDS011;10317;47.254;11.314;2022-10-16T12:28:51;4.20;;;3.00;;
20318;SDS011;10317;47.254;11.314;2022-10-16T12:31:18;3.60;;;3.28;;
20318;SDS011;10317;47.254;11.314;2022-10-16T12:36:26;4.28;;;3.58;;
20318;SDS011;10317;47.254;11.314;2022-10-16T12:38:54;3.75;;;3.45;;
20318;SDS011;10317;47.254;11.314;2022-10-16T12:41:34;3.63;;;3.00;;
20318;SDS011;10317;47.254;11.314;2022-10-16T12:44:02;8.18;;;3.53;;
20318;SDS011;10317;47.254;11.314;2022-10-16T12:49:04;4.90;;;3.17;;
20318;SDS011;10317;47.254;11.314;2022-10-16T12:51:38;6.45;;;3.47;;
20318;SDS011;10317;47.254;11.314;2022-10-16T12:54:18;3.63;;;3.33;;
20318;SDS011;10317;47.254;11.314;2022-10-16T13:17:13;3.55;;;3.25;;
20318;SDS011;10317;47.254;11.314;2022-10-16T13:30:18;3.80;;;3.50;;
20318;SDS011;10317;47.254;11.314;2022-10-16T13:32:47;3.35;;;3.05;;
20318;SDS011;10317;47.254;11.314;2022-10-16T13:35:34;3.50;;;3.13;;
20318;SDS011;10317;47.254;11.314;2022-10-16T13:40:47;9.57;;;3.35;;
20318;SDS011;10317;47.254;11.314;2022-10-16T13:43:13;4.03;;;3.72;;
20318;SDS011;10317;47.254;11.314;2022-10-16T13:45:39;3.92;;;3.55;;
20318;SDS011;10317;47.254;11.314;2022-10-16T13:48:05;4.70;;;3.40;;
20318;SDS011;10317;47.254;11.314;2022-10-16T13:50:34;4.38;;;4.07;;
20318;SDS011;10317;47.254;11.314;2022-10-16T13:53:09;6.88;;;3.88;;
20318;SDS011;10317;47.254;11.314;2022-10-16T13:55:39;5.05;;;3.90;;
20318;SDS011;10317;47.254;11.314;2022-10-16T13:58:10;5.38;;;3.72;;
20318;SDS011;10317;47.254;11.314;2022-10-16T14:00:38;4.25;;;3.85;;
20318;SDS011;10317;47.254;11.314;2022-10-16T14:03:05;4.97;;;4.13;;
20318;SDS011;10317;47.254;11.314;2022-10-16T14:05:42;5.10;;;3.60;;
20318;SDS011;10317;47.254;11.314;2022-10-16T14:08:14;5.20;;;3.53;;
20318;SDS011;10317;47.254;11.314;2022-10-16T14:10:41;4.47;;;3.40;;
20318;SDS011;10317;47.254;11.314;2022-10-16T14:13:07;5.60;;;4.15;;
20318;SDS011;10317;47.254;11.314;2022-10-16T14:15:39;4.32;;;4.03;;
20318;SDS011;10317;47.254;11.314;2022-10-16T14:18:05;3.83;;;3.47;;
20318;SDS011;10317;47.254;11.314;2022-10-16T14:20:31;3.63;;;3.33;;
20318;SDS011;10317;47.254;11.314;2022-10-16T14:25:44;3.72;;;3.22;;
20318;SDS011;10317;47.254;11.314;2022-10-16T14:39:36;3.65;;;3.20;;
20318;SDS011;10317;47.254;11.314;2022-10-16T14:41:45;4.10;;;3.47;;
20318;SDS011;10317;47.254;11.314;2022-10-16T14:44:12;6.05;;;3.28;;
20318;SDS011;10317;47.254;11.314;2022-10-16T14:46:42;3.70;;;3.40;;
20318;SDS011;10317;47.254;11.314;2022-10-16T14:51:35;4.03;;;3.63;;
20318;SDS011;10317;47.254;11.314;2022-10-16T14:54:01;3.85;;;3.42;;
20318;SDS011;10317;47.254;11.314;2022-10-16T14:56:34;3.25;;;3.05;;
20318;SDS011;10317;47.254;11.314;2022-10-16T14:59:16;3.75;;;3.45;;
20318;SDS011;10317;47.254;11.314;2022-10-16T15:02:21;4.50;;;4.07;;
20318;SDS011;10317;47.254;11.314;2022-10-16T15:04:48;4.80;;;4.40;;
20318;SDS011;10317;47.254;11.314;2022-10-16T15:07:13;3.53;;;3.30;;
20318;SDS011;10317;47.254;11.314;2022-10-16T15:09:39;4.93;;;3.67;;
20318;SDS011;10317;47.254;11.314;2022-10-16T15:12:05;4.75;;;3.40;;
20318;SDS011;10317;47.254;11.314;2022-10-16T15:14:31;5.05;;;3.22;;
20318;SDS011;10317;47.254;11.314;2022-10-16T15:16:56;3.88;;;3.58;;
20318;SDS011;10317;47.254;11.314;2022-10-16T15:19:22;3.85;;;3.30;;
20318;SDS011;10317;47.254;11.314;2022-10-16T15:21:48;5.53;;;3.10;;
20318;SDS011;10317;47.254;11.314;2022-10-16T15:24:14;3.30;;;3.00;;
20318;SDS011;10317;47.254;11.314;2022-10-16T15:26:40;3.10;;;2.85;;
20318;SDS011;10317;47.254;11.314;2022-10-16T15:29:06;4.82;;;3.55;;
20318;SDS011;10317;47.254;11.314;2022-10-16T15:31:33;2.97;;;2.58;;
20318;SDS011;10317;47.254;11.314;2022-10-16T15:33:59;3.33;;;2.92;;
20318;SDS011;10317;47.254;11.314;2022-10-16T15:36:31;2.85;;;2.63;;
20318;SDS011;10317;47.254;11.314;2022-10-16T15:39:05;3.90;;;2.78;;
20318;SDS011;10317;47.254;11.314;2022-10-16T15:41:38;2.88;;;2.67;;
20318;SDS011;10317;47.254;11.314;2022-10-16T15:44:04;4.40;;;2.60;;
20318;SDS011;10317;47.254;11.314;2022-10-16T15:46:30;3.92;;;3.00;;
20318;SDS011;10317;47.254;11.314;2022-10-16T15:48:56;5.18;;;3.00;;
20318;SDS011;10317;47.254;11.314;2022-10-16T15:51:23;3.60;;;2.55;;
20318;SDS011;10317;47.254;11.314;2022-10-16T15:53:50;3.40;;;3.10;;
20318;SDS011;10317;47.254;11.314;2022-10-16T15:56:16;5.50;;;3.63;;
20318;SDS011;10317;47.254;11.314;2022-10-16T15:58:42;3.30;;;3.10;;
20318;SDS011;10317;47.254;11.314;2022-10-16T16:01:08;2.88;;;2.67;;
20318;SDS011;10317;47.254;11.314;2022-10-16T16:03:36;3.08;;;2.83;;
20318;SDS011;10317;47.254;11.314;2022-10-16T16:06:08;3.08;;;2.80;;
20318;SDS011;10317;47.254;11.314;2022-10-16T16:08:35;2.80;;;2.60;;
20318;SDS011;10317;47.254;11.314;2022-10-16T16:11:03;3.25;;;2.92;;
20318;SDS011;10317;47.254;11.314;2022-10-16T16:13:33;3.03;;;2.83;;
20318;SDS011;10317;47.254;11.314;2022-10-16T16:16:01;3.47;;;3.17;;
20318;SDS011;10317;47.254;11.314;2022-10-16T16:18:31;3.58;;;3.28;;
20318;SDS011;10317;47.254;11.314;2022-10-16T16:20:57;4.13;;;3.70;;
20318;SDS011;10317;47.254;11.314;2022-10-16T16:23:23;3.50;;;3.20;;
20318;SDS011;10317;47.254;11.314;2022-10-16T16:28:51;3.33;;;3.08;;
20318;SDS011;10317;47.254;11.314;2022-10-16T16:31:18;14.07;;;4.47;;
20318;SDS011;10317;47.254;11.314;2022-10-16T16:33:43;4.22;;;3.63;;
20318;SDS011;10317;47.254;11.314;2022-10-16T16:36:09;4.05;;;3.72;;
20318;SDS011;10317;47.254;11.314;2022-10-16T16:38:35;8.05;;;4.93;;
20318;SDS011;10317;47.254;11.314;2022-10-16T16:41:11;4.18;;;3.75;;
20318;SDS011;10317;47.254;11.314;2022-10-16T16:43:41;4.30;;;3.78;;
20318;SDS011;10317;47.254;11.314;2022-10-16T16:46:07;6.00;;;3.70;;
20318;SDS011;10317;47.254;11.314;2022-10-16T16:48:33;6.22;;;3.80;;
20318;SDS011;10317;47.254;11.314;2022-10-16T16:51:04;6.88;;;3.33;;
20318;SDS011;10317;47.254;11.314;2022-10-16T16:53:32;3.50;;;3.20;;
20318;SDS011;10317;47.254;11.314;2022-10-16T16:56:03;7.25;;;3.75;;
20318;SDS011;10317;47.254;11.314;2022-10-16T16:58:30;5.45;;;4.13;;
20318;SDS011;10317;47.254;11.314;2022-10-16T17:00:56;6.88;;;4.82;;
20318;SDS011;10317;47.254;11.314;2022-10-16T17:03:26;3.45;;;3.22;;
20318;SDS011;10317;47.254;11.314;2022-10-16T17:06:02;5.72;;;3.63;;
20318;SDS011;10317;47.254;11.314;2022-10-16T17:08:35;5.95;;;3.70;;
20318;SDS011;10317;47.254;11.314;2022-10-16T17:11:01;3.78;;;3.47;;
20318;SDS011;10317;47.254;11.314;2022-10-16T17:13:28;4.35;;;3.45;;
20318;SDS011;10317;47.254;11.314;2022-10-16T17:15:55;4.40;;;2.90;;
20318;SDS011;10317;47.254;11.314;2022-10-16T17:18:21;4.10;;;3.70;;
20318;SDS011;10317;47.254;11.314;2022-10-16T17:20:49;3.45;;;3.15;;
20318;SDS011;10317;47.254;11.314;2022-10-16T17:23:15;3.28;;;3.05;;
20318;SDS011;10317;47.254;11.314;2022-10-16T17:25:42;4.13;;;3.63;;
20318;SDS011;10317;47.254;11.314;2022-10-16T17:28:09;5.40;;;3.28;;
20318;SDS011;10317;47.254;11.314;2022-10-16T17:30:36;3.50;;;3.25;;
20318;SDS011;10317;47.254;11.314;2022-10-16T17:33:03;4.15;;;3.75;;